Time;durP1;ratioP1;P1;durP2;ratioP2;P2;SDS_P1;SDS_P2;PMS_P1;PMS_P2;Temp;Humidity;BMP_temperature;BMP_pressure;BME280_temperature;BME280_humidity;BME280_pressure;Samples;Min_cycle;Max_cycle;Signal;HPM_P1;HPM_P2
2023/09/04 00:00:35;;;;;;;4.18;3.20;;;14.20;99.90;;;;;;5010407;28;20030;-70
2023/09/04 00:03:00;;;;;;;4.70;3.03;;;14.20;99.90;;;;;;5011638;28;20054;-71
2023/09/04 00:05:26;;;;;;;2.88;2.67;;;14.10;99.90;;;;;;5015199;28;20049;-70
2023/09/04 00:07:51;;;;;;;6.40;2.70;;;14.10;99.90;;;;;;5013957;28;20559;-71
2023/09/04 00:10:17;;;;;;;3.70;3.00;;;14.10;99.90;;;;;;5010382;28;20018;-71
2023/09/04 00:12:43;;;;;;;4.03;2.45;;;14.10;99.90;;;;;;5009158;28;20022;-71
2023/09/04 00:15:08;;;;;;;3.42;2.85;;;14.00;99.90;;;;;;5008095;28;20021;-71
2023/09/04 00:17:34;;;;;;;4.60;3.13;;;14.00;99.90;;;;;;5014035;28;20511;-71
2023/09/04 00:19:59;;;;;;;3.90;2.55;;;13.90;99.90;;;;;;5011567;28;20172;-71
2023/09/04 00:22:27;;;;;;;2.95;2.58;;;13.90;99.90;;;;;;5014325;28;20034;-71
2023/09/04 00:24:53;;;;;;;4.78;2.75;;;13.90;99.90;;;;;;5014254;28;20026;-71
2023/09/04 00:27:19;;;;;;;5.05;2.53;;;13.90;99.90;;;;;;5011913;28;20030;-71
2023/09/04 00:29:45;;;;;;;3.15;2.28;;;13.90;99.90;;;;;;5014361;28;20097;-71
2023/09/04 00:32:11;;;;;;;2.83;2.45;;;13.90;99.90;;;;;;5010115;28;20117;-71
2023/09/04 00:34:36;;;;;;;3.28;2.75;;;13.90;99.90;;;;;;5013262;28;20101;-71
2023/09/04 00:37:02;;;;;;;3.83;3.22;;;13.90;99.90;;;;;;5009738;28;20076;-71
2023/09/04 00:39:28;;;;;;;2.97;2.60;;;13.80;99.90;;;;;;5014245;28;20022;-72
2023/09/04 00:41:53;;;;;;;4.55;3.00;;;13.80;99.90;;;;;;5012782;28;20040;-71
2023/09/04 00:44:19;;;;;;;8.43;3.50;;;13.80;99.90;;;;;;5014414;28;20045;-71
2023/09/04 00:46:45;;;;;;;7.00;2.72;;;13.70;99.90;;;;;;5011070;28;20026;-71
2023/09/04 00:49:12;;;;;;;4.07;2.85;;;13.70;99.90;;;;;;5013774;28;20100;-71
2023/09/04 00:51:38;;;;;;;4.22;2.78;;;13.70;99.90;;;;;;5006724;28;20072;-71
2023/09/04 00:54:05;;;;;;;2.97;2.67;;;13.70;99.90;;;;;;5012348;28;20566;-71
2023/09/04 00:56:30;;;;;;;3.60;2.80;;;13.60;99.90;;;;;;5012583;28;20117;-71
2023/09/04 00:58:56;;;;;;;4.07;2.90;;;13.60;99.90;;;;;;5009971;28;20161;-72
2023/09/04 01:01:22;;;;;;;4.55;3.10;;;13.60;99.90;;;;;;5008733;28;20026;-72
2023/09/04 01:03:48;;;;;;;4.03;2.90;;;13.60;99.90;;;;;;5012491;28;20554;-71
2023/09/04 01:06:14;;;;;;;2.80;2.45;;;13.60;99.90;;;;;;5013178;28;20044;-72
2023/09/04 01:08:39;;;;;;;6.63;2.72;;;13.60;99.90;;;;;;5013268;28;20026;-71
2023/09/04 01:11:16;;;;;;;2.15;1.95;;;13.60;99.90;;;;;;5005521;28;20041;-71
2023/09/04 01:13:52;;;;;;;4.05;2.03;;;13.60;99.90;;;;;;5011655;28;20491;-71
2023/09/04 01:16:19;;;;;;;5.03;2.85;;;13.60;99.90;;;;;;5012058;28;20073;-71
2023/09/04 01:18:44;;;;;;;3.13;2.58;;;13.50;99.90;;;;;;5012140;28;20034;-71
2023/09/04 01:21:10;;;;;;;3.05;2.20;;;13.50;99.90;;;;;;5013222;28;20490;-72
2023/09/04 01:23:35;;;;;;;4.50;2.60;;;13.50;99.90;;;;;;5011889;28;20503;-72
2023/09/04 01:26:13;;;;;;;3.35;2.70;;;13.50;99.90;;;;;;5012842;28;20437;-72
2023/09/04 01:28:45;;;;;;;3.63;2.60;;;13.40;99.90;;;;;;5007772;28;20475;-71
2023/09/04 01:31:24;;;;;;;3.78;3.30;;;13.30;99.90;;;;;;5005951;28;20108;-71
2023/09/04 01:33:52;;;;;;;3.55;3.22;;;13.30;99.90;;;;;;5011053;28;20030;-71
2023/09/04 01:36:21;;;;;;;9.13;4.22;;;13.30;99.90;;;;;;5011583;28;20025;-71
2023/09/04 01:38:47;;;;;;;6.72;4.18;;;13.20;99.90;;;;;;5013046;28;20097;-71
2023/09/04 01:41:13;;;;;;;4.70;3.10;;;13.20;99.90;;;;;;5011948;28;20069;-71
2023/09/04 01:43:38;;;;;;;8.65;4.63;;;13.10;99.90;;;;;;5012886;28;20026;-71
2023/09/04 01:46:05;;;;;;;7.72;5.05;;;13.10;99.90;;;;;;5010628;28;20037;-72
2023/09/04 01:48:30;;;;;;;11.63;8.45;;;13.10;99.90;;;;;;5011880;28;20026;-71
2023/09/04 01:50:56;;;;;;;37.50;25.27;;;13.10;99.90;;;;;;5006370;28;20029;-70
2023/09/04 01:53:22;;;;;;;10.93;8.02;;;13.00;99.90;;;;;;5012893;28;20101;-71
2023/09/04 01:55:48;;;;;;;9.68;7.53;;;13.10;99.90;;;;;;5011113;28;20022;-71
2023/09/04 01:58:13;;;;;;;10.43;6.45;;;13.10;99.90;;;;;;5007234;28;20033;-72
2023/09/04 02:00:39;;;;;;;13.57;10.07;;;13.10;99.90;;;;;;5011070;28;20040;-72
2023/09/04 02:03:04;;;;;;;11.57;8.07;;;13.10;99.90;;;;;;5009920;28;20042;-71
2023/09/04 02:05:30;;;;;;;11.77;7.63;;;13.00;99.90;;;;;;5012662;28;20022;-71
2023/09/04 02:07:55;;;;;;;4.72;3.38;;;13.00;99.90;;;;;;5010960;28;20029;-71
2023/09/04 02:10:23;;;;;;;3.30;3.00;;;13.00;99.90;;;;;;5011219;28;20026;-72
2023/09/04 02:12:49;;;;;;;7.07;4.88;;;12.90;99.90;;;;;;5011487;28;20383;-71
2023/09/04 02:15:16;;;;;;;8.35;4.80;;;12.80;99.90;;;;;;5010615;28;20025;-71
2023/09/04 02:17:41;;;;;;;7.78;4.07;;;12.90;99.90;;;;;;5011570;28;20029;-71
2023/09/04 02:20:07;;;;;;;4.55;3.72;;;12.90;99.90;;;;;;5011225;28;20033;-71
2023/09/04 02:22:33;;;;;;;7.10;4.47;;;12.90;99.90;;;;;;5011755;28;20030;-71
2023/09/04 02:24:58;;;;;;;4.50;3.60;;;12.90;99.90;;;;;;5005619;28;20027;-71
2023/09/04 02:27:24;;;;;;;4.63;3.78;;;12.80;99.90;;;;;;5005140;28;20493;-71
2023/09/04 02:29:49;;;;;;;7.05;3.50;;;12.90;99.90;;;;;;5010832;28;20052;-71
2023/09/04 02:32:15;;;;;;;5.22;4.03;;;12.80;99.90;;;;;;5009919;28;20026;-71
2023/09/04 02:34:40;;;;;;;6.78;4.18;;;12.80;99.90;;;;;;5011971;28;20169;-72
2023/09/04 02:37:06;;;;;;;;;;;12.90;99.90;;;;;;5012361;28;20021;-72
2023/09/04 02:39:31;;;;;;;5.80;3.13;;;12.90;99.90;;;;;;5009776;28;19912;-71
2023/09/04 02:41:57;;;;;;;3.92;3.33;;;12.80;99.90;;;;;;5007863;28;20530;-71
2023/09/04 02:44:22;;;;;;;;;;;12.80;99.90;;;;;;5010196;28;20030;-71
2023/09/04 02:46:48;;;;;;;4.43;3.00;;;12.80;99.90;;;;;;5010746;28;19918;-72
2023/09/04 02:49:13;;;;;;;4.22;3.08;;;12.80;99.90;;;;;;5011444;28;20030;-71
2023/09/04 02:51:39;;;;;;;5.00;3.60;;;12.80;99.90;;;;;;5011081;28;20029;-71
2023/09/04 02:54:04;;;;;;;4.28;3.03;;;12.80;99.90;;;;;;5011806;28;20438;-71
2023/09/04 02:56:30;;;;;;;;;;;12.70;99.90;;;;;;5010063;28;20034;-72
2023/09/04 02:58:55;;;;;;;6.57;3.33;;;12.70;99.90;;;;;;5010013;28;19917;-71
2023/09/04 03:01:21;;;;;;;4.13;2.70;;;12.70;99.90;;;;;;5010804;28;20041;-71
2023/09/04 03:03:46;;;;;;;;;;;12.70;99.90;;;;;;5011957;28;20076;-71
2023/09/04 03:06:12;;;;;;;7.07;3.05;;;12.70;99.90;;;;;;5011756;28;19912;-71
2023/09/04 03:08:40;;;;;;;4.63;2.53;;;12.70;99.90;;;;;;5011919;28;20030;-71
2023/09/04 03:11:10;;;;;;;5.70;3.15;;;12.60;99.90;;;;;;5010647;28;20367;-71
2023/09/04 03:13:38;;;;;;;4.90;2.95;;;12.60;99.90;;;;;;5008962;28;20022;-71
2023/09/04 03:16:05;;;;;;;6.80;3.78;;;12.60;99.90;;;;;;5010575;28;20073;-72
2023/09/04 03:18:34;;;;;;;4.03;3.63;;;12.60;99.90;;;;;;5009723;28;20081;-71
2023/09/04 03:21:03;;;;;;;5.43;3.20;;;12.50;99.90;;;;;;5011622;28;20033;-71
2023/09/04 03:23:29;;;;;;;7.13;3.60;;;12.50;99.90;;;;;;5012076;28;20030;-71
2023/09/04 03:25:56;;;;;;;6.57;3.05;;;12.50;99.90;;;;;;5011780;28;20498;-71
2023/09/04 03:28:21;;;;;;;13.35;2.65;;;12.40;99.90;;;;;;5003062;28;20479;-72
2023/09/04 03:30:47;;;;;;;7.93;3.70;;;12.50;99.90;;;;;;5004950;28;20045;-71
2023/09/04 03:33:13;;;;;;;3.22;2.72;;;12.40;99.90;;;;;;5004596;28;20920;-72
2023/09/04 03:35:38;;;;;;;;;;;12.40;99.90;;;;;;5012348;28;20010;-72
2023/09/04 03:38:04;;;;;;;6.47;3.70;;;12.40;99.90;;;;;;5011554;28;19917;-71
2023/09/04 03:40:30;;;;;;;6.40;2.95;;;12.50;99.90;;;;;;5011907;28;20028;-71
2023/09/04 03:42:55;;;;;;;6.10;3.17;;;12.50;99.90;;;;;;5010038;28;20038;-72
2023/09/04 03:45:21;;;;;;;10.25;4.30;;;12.40;99.90;;;;;;5009110;28;20168;-71
2023/09/04 03:47:48;;;;;;;5.43;3.47;;;12.40;99.90;;;;;;5007635;28;20030;-71
2023/09/04 03:50:13;;;;;;;5.70;3.45;;;12.40;99.90;;;;;;5009313;28;20374;-71
2023/09/04 03:52:40;;;;;;;5.97;3.63;;;12.40;99.90;;;;;;5010071;28;20018;-72
2023/09/04 03:55:10;;;;;;;6.20;3.55;;;12.40;99.90;;;;;;5013439;28;20514;-71
2023/09/04 03:57:36;;;;;;;6.38;4.75;;;12.40;99.90;;;;;;5012473;28;20065;-71
2023/09/04 04:00:14;;;;;;;6.13;3.75;;;12.40;99.90;;;;;;5010630;28;20060;-71
2023/09/04 04:02:40;;;;;;;2.88;2.53;;;12.40;99.90;;;;;;5009213;28;20044;-69
2023/09/04 04:05:06;;;;;;;3.55;3.15;;;12.60;99.90;;;;;;5008403;28;20017;-69
2023/09/04 04:07:32;;;;;;;3.58;2.75;;;13.00;99.90;;;;;;5006440;28;20033;-69
2023/09/04 04:09:57;;;;;;;4.90;3.28;;;13.40;99.90;;;;;;5008327;28;20083;-69
2023/09/04 04:12:24;;;;;;;;;;;13.60;99.90;;;;;;5005977;28;20471;-69
2023/09/04 04:14:53;;;;;;;4.28;2.67;;;13.70;99.90;;;;;;5007426;28;19996;-69
2023/09/04 04:17:19;;;;;;;4.13;3.00;;;13.70;99.90;;;;;;5011127;28;20026;-69
2023/09/04 04:19:44;;;;;;;3.47;3.00;;;13.90;99.90;;;;;;5013353;28;20055;-69
2023/09/04 04:22:10;;;;;;;7.82;2.33;;;14.00;99.90;;;;;;5013218;28;20026;-69
2023/09/04 04:24:36;;;;;;;;;;;14.20;99.90;;;;;;5013123;28;20030;-69
2023/09/04 04:27:01;;;;;;;3.17;2.40;;;14.40;99.90;;;;;;5012219;28;20286;-69
2023/09/04 04:29:27;;;;;;;6.53;3.10;;;14.40;99.90;;;;;;5006729;28;20030;-69
2023/09/04 04:31:53;;;;;;;10.10;2.95;;;14.30;99.90;;;;;;5006246;28;20022;-69
2023/09/04 04:34:19;;;;;;;5.13;3.08;;;14.20;99.90;;;;;;5008553;28;20030;-69
2023/09/04 04:36:44;;;;;;;;;;;14.20;99.90;;;;;;5013471;28;20374;-69
2023/09/04 04:39:09;;;;;;;5.40;3.35;;;14.10;99.90;;;;;;5011065;28;19963;-69
2023/09/04 04:41:35;;;;;;;4.60;2.42;;;14.00;99.90;;;;;;5008209;28;20478;-69
2023/09/04 04:44:00;;;;;;;4.95;3.17;;;14.00;99.90;;;;;;5003597;28;20467;-69
2023/09/04 04:46:26;;;;;;;2.92;2.63;;;14.10;99.90;;;;;;5001989;28;20033;-68
2023/09/04 04:48:52;;;;;;;;;;;14.30;99.90;;;;;;5010309;28;20054;-69
2023/09/04 04:51:17;;;;;;;5.57;2.47;;;14.40;99.90;;;;;;4996575;28;19972;-68
2023/09/04 04:53:43;;;;;;;7.90;2.90;;;14.40;99.90;;;;;;4999186;28;20076;-69
2023/09/04 04:56:08;;;;;;;7.85;3.72;;;14.20;99.90;;;;;;5000884;28;20022;-72
2023/09/04 04:58:34;;;;;;;6.55;3.00;;;14.10;99.90;;;;;;4998058;28;20033;-72
2023/09/04 05:00:59;;;;;;;7.18;3.33;;;14.10;99.90;;;;;;5010083;28;20041;-71
2023/09/04 05:03:25;;;;;;;6.50;2.90;;;13.90;99.90;;;;;;4994286;28;20404;-71
2023/09/04 05:05:51;;;;;;;4.65;3.58;;;13.60;99.90;;;;;;4993931;28;20080;-71
2023/09/04 05:08:16;;;;;;;5.50;4.72;;;13.50;99.90;;;;;;4993766;28;20511;-72
2023/09/04 05:10:42;;;;;;;15.75;10.75;;;13.40;99.90;;;;;;4997803;28;20448;-72
2023/09/04 05:13:07;;;;;;;6.25;4.50;;;13.40;99.90;;;;;;4996836;28;20026;-72
2023/09/04 05:15:33;;;;;;;8.68;6.70;;;13.40;99.90;;;;;;4996593;28;20915;-71
2023/09/04 05:17:58;;;;;;;12.70;7.88;;;13.40;99.90;;;;;;4996342;28;20431;-72
2023/09/04 05:20:23;;;;;;;;;;;13.50;99.90;;;;;;5005233;28;20030;-72
2023/09/04 05:22:49;;;;;;;11.70;7.25;;;13.70;99.90;;;;;;5006595;28;19909;-72
2023/09/04 05:25:15;;;;;;;8.93;5.80;;;14.00;99.90;;;;;;5003692;28;20058;-73
2023/09/04 05:27:40;;;;;;;19.33;8.93;;;14.30;99.90;;;;;;5014990;28;20022;-73
2023/09/04 05:30:06;;;;;;;26.75;6.53;;;14.40;99.90;;;;;;5007710;28;20077;-73
2023/09/04 05:32:32;;;;;;;18.85;6.15;;;14.50;99.90;;;;;;5015193;28;20025;-73
2023/09/04 05:34:57;;;;;;;8.10;3.40;;;14.70;99.90;;;;;;5015089;28;20026;-73
2023/09/04 05:37:23;;;;;;;3.78;3.08;;;14.80;99.90;;;;;;5014773;28;20029;-73
2023/09/04 05:39:49;;;;;;;7.35;2.85;;;15.00;99.90;;;;;;5013590;28;20034;-73
2023/09/04 05:42:14;;;;;;;4.55;2.95;;;15.10;99.90;;;;;;5015146;28;20519;-73
2023/09/04 05:44:40;;;;;;;4.63;2.60;;;15.10;99.90;;;;;;5014653;28;20438;-73
2023/09/04 05:47:06;;;;;;;;;;;15.10;99.90;;;;;;5014893;28;20018;-73
2023/09/04 05:49:31;;;;;;;9.18;2.90;;;15.20;99.90;;;;;;5014369;28;19909;-73
2023/09/04 05:51:57;;;;;;;5.90;3.22;;;15.10;99.90;;;;;;5012996;28;20036;-72
2023/09/04 05:54:23;;;;;;;6.43;2.92;;;15.10;99.90;;;;;;5011912;28;20021;-72
2023/09/04 05:56:49;;;;;;;5.15;2.70;;;15.10;99.90;;;;;;5010781;28;20037;-73
2023/09/04 05:59:15;;;;;;;4.40;3.00;;;15.10;99.90;;;;;;5011858;28;20057;-72
2023/09/04 06:01:40;;;;;;;5.43;2.72;;;15.30;99.90;;;;;;5012322;28;20064;-72
2023/09/04 06:04:06;;;;;;;6.15;2.88;;;15.40;99.90;;;;;;5002223;28;20029;-72
2023/09/04 06:06:31;;;;;;;4.65;3.58;;;15.40;99.90;;;;;;5007482;28;20033;-73
2023/09/04 06:08:57;;;;;;;;;;;15.20;99.90;;;;;;5009703;28;20041;-72
2023/09/04 06:11:22;;;;;;;4.75;3.25;;;15.10;99.90;;;;;;5004908;28;20370;-72
2023/09/04 06:13:51;;;;;;;4.60;2.88;;;15.20;99.90;;;;;;5002720;28;20614;-72
2023/09/04 06:16:19;;;;;;;4.53;3.50;;;15.20;99.90;;;;;;5004323;28;20033;-73
2023/09/04 06:18:44;;;;;;;6.95;2.40;;;15.30;99.90;;;;;;5010544;28;20459;-73
2023/09/04 06:21:10;;;;;;;8.10;3.33;;;15.30;99.90;;;;;;5009666;28;20083;-72
2023/09/04 06:23:35;;;;;;;3.95;2.70;;;15.30;99.90;;;;;;5004399;28;20036;-73
2023/09/04 06:26:03;;;;;;;3.58;2.80;;;15.30;99.90;;;;;;5006442;28;20379;-72
2023/09/04 06:28:29;;;;;;;3.65;2.55;;;15.40;99.90;;;;;;5010587;28;20026;-72
2023/09/04 06:30:56;;;;;;;6.45;2.97;;;15.40;99.90;;;;;;5008605;28;20034;-72
2023/09/04 06:33:24;;;;;;;3.65;2.80;;;15.60;99.90;;;;;;5002975;28;20026;-73
2023/09/04 06:35:49;;;;;;;3.70;3.33;;;15.80;99.90;;;;;;5011787;28;20052;-72
2023/09/04 06:38:15;;;;;;;4.65;3.38;;;16.00;99.90;;;;;;5010336;28;20390;-73
2023/09/04 06:40:42;;;;;;;4.35;2.20;;;16.10;99.90;;;;;;5011131;28;20387;-73
2023/09/04 06:43:08;;;;;;;4.70;3.33;;;16.20;99.90;;;;;;5010454;28;20441;-73
2023/09/04 06:45:35;;;;;;;3.25;2.60;;;16.20;99.90;;;;;;5001886;28;20022;-73
2023/09/04 06:48:01;;;;;;;5.97;3.00;;;16.30;99.90;;;;;;5009792;28;20053;-73
2023/09/04 06:50:26;;;;;;;4.65;2.28;;;16.30;99.90;;;;;;5010982;28;20053;-73
2023/09/04 06:52:52;;;;;;;7.65;2.35;;;16.40;99.90;;;;;;5006984;28;20117;-73
2023/09/04 06:55:17;;;;;;;5.43;2.50;;;16.40;99.90;;;;;;5011304;28;20589;-74
2023/09/04 06:57:43;;;;;;;4.30;2.92;;;16.40;99.90;;;;;;5009201;28;20112;-73
2023/09/04 07:00:10;;;;;;;3.50;1.90;;;16.50;99.90;;;;;;5007719;28;20407;-72
2023/09/04 07:02:36;;;;;;;7.93;5.22;;;16.60;99.90;;;;;;5008269;28;20568;-70
2023/09/04 07:05:02;;;;;;;3.45;3.15;;;16.80;99.90;;;;;;5011072;28;20116;-72
2023/09/04 07:07:28;;;;;;;81.38;53.65;;;16.80;99.90;;;;;;5009382;28;20030;-72
2023/09/04 07:09:53;;;;;;;17.90;10.38;;;16.90;99.90;;;;;;5006369;28;20030;-72
2023/09/04 07:12:19;;;;;;;13.68;8.77;;;17.00;99.90;;;;;;5007558;28;20022;-71
2023/09/04 07:14:44;;;;;;;17.50;8.65;;;17.00;99.90;;;;;;5010694;28;20076;-71
2023/09/04 07:17:10;;;;;;;14.75;9.18;;;17.20;99.90;;;;;;5009918;28;20037;-71
2023/09/04 07:19:35;;;;;;;14.93;8.68;;;17.20;99.90;;;;;;5009283;28;20033;-71
2023/09/04 07:22:01;;;;;;;8.35;5.70;;;17.30;99.90;;;;;;5009896;28;20117;-71
2023/09/04 07:24:26;;;;;;;5.93;4.15;;;17.40;99.90;;;;;;5008839;28;20116;-71
2023/09/04 07:26:52;;;;;;;3.58;2.58;;;17.50;99.90;;;;;;5009133;28;20589;-71
2023/09/04 07:29:17;;;;;;;6.28;2.40;;;17.70;99.90;;;;;;5010039;28;20038;-72
2023/09/04 07:31:43;;;;;;;5.50;3.63;;;17.70;99.90;;;;;;5013847;28;20105;-71
2023/09/04 07:34:09;;;;;;;4.45;3.33;;;17.80;99.90;;;;;;5012336;28;20014;-71
2023/09/04 07:36:34;;;;;;;6.60;2.63;;;18.00;99.90;;;;;;5010789;28;20034;-71
2023/09/04 07:39:00;;;;;;;13.48;3.53;;;18.10;99.90;;;;;;5011691;28;20122;-71
2023/09/04 07:41:25;;;;;;;1.83;1.45;;;18.20;99.90;;;;;;5013801;28;20030;-71
2023/09/04 07:43:51;;;;;;;4.18;1.98;;;18.40;99.90;;;;;;5013432;28;20075;-70
2023/09/04 07:46:17;;;;;;;11.27;2.05;;;18.40;99.90;;;;;;5013273;28;20042;-70
2023/09/04 07:48:43;;;;;;;3.67;2.25;;;18.50;99.90;;;;;;5013276;28;20029;-70
2023/09/04 07:51:09;;;;;;;3.88;2.38;;;18.60;99.90;;;;;;5011637;28;20053;-70
2023/09/04 07:53:34;;;;;;;2.90;2.47;;;18.70;99.90;;;;;;5014245;28;20490;-70
2023/09/04 07:56:00;;;;;;;7.03;2.58;;;18.70;99.90;;;;;;5014363;28;20018;-71
2023/09/04 07:58:25;;;;;;;3.78;1.63;;;18.80;99.90;;;;;;5013352;28;20105;-71
2023/09/04 08:00:52;;;;;;;2.83;1.38;;;18.90;99.90;;;;;;5010617;28;20037;-70
2023/09/04 08:03:18;;;;;;;2.03;1.77;;;19.10;99.90;;;;;;5008276;28;20029;-70
2023/09/04 08:05:44;;;;;;;3.50;1.70;;;19.10;99.90;;;;;;5012595;28;20503;-70
2023/09/04 08:08:10;;;;;;;6.20;1.83;;;19.10;99.90;;;;;;5012450;28;20042;-70
2023/09/04 08:10:44;;;;;;;3.90;1.75;;;19.20;99.90;;;;;;5013505;28;20444;-71
2023/09/04 08:13:11;;;;;;;6.22;1.65;;;19.30;99.90;;;;;;5013860;28;20173;-70
2023/09/04 08:15:37;;;;;;;4.95;2.67;;;19.30;99.70;;;;;;5012663;28;20030;-70
2023/09/04 08:18:06;;;;;;;3.75;2.03;;;19.30;99.90;;;;;;5004133;28;20101;-70
2023/09/04 08:20:31;;;;;;;3.33;2.22;;;19.50;99.90;;;;;;5005593;28;20034;-70
2023/09/04 08:22:57;;;;;;;2.78;2.00;;;19.60;99.70;;;;;;5012882;28;20518;-70
2023/09/04 08:25:22;;;;;;;2.30;2.10;;;19.70;99.10;;;;;;5013948;28;20034;-70
2023/09/04 08:27:48;;;;;;;3.42;2.20;;;19.70;98.60;;;;;;5012340;28;20389;-70
2023/09/04 08:30:13;;;;;;;2.75;2.13;;;19.80;98.40;;;;;;5012234;28;20534;-71
2023/09/04 08:32:39;;;;;;;5.43;2.05;;;19.80;98.30;;;;;;5010526;28;20030;-70
2023/09/04 08:35:05;;;;;;;4.38;2.05;;;19.90;98.60;;;;;;5010639;28;20076;-70
2023/09/04 08:37:31;;;;;;;4.18;2.75;;;20.00;98.00;;;;;;5012448;28;20030;-70
2023/09/04 08:39:56;;;;;;;3.15;2.25;;;20.10;98.40;;;;;;5011290;28;20088;-70
2023/09/04 08:42:22;;;;;;;2.97;2.30;;;20.20;98.00;;;;;;5013346;28;20064;-71
2023/09/04 08:44:50;;;;;;;4.60;3.15;;;20.30;98.00;;;;;;5013555;28;20029;-71
2023/09/04 08:47:19;;;;;;;3.92;2.17;;;20.40;97.90;;;;;;5012583;28;20033;-71
2023/09/04 08:49:45;;;;;;;2.90;2.20;;;20.50;98.10;;;;;;5011473;28;20448;-71
2023/09/04 08:52:12;;;;;;;2.30;2.10;;;20.70;97.30;;;;;;5012488;28;20018;-70
2023/09/04 08:54:39;;;;;;;2.60;1.90;;;20.70;97.30;;;;;;5013208;28;20415;-70
2023/09/04 08:57:04;;;;;;;3.08;1.38;;;20.80;97.10;;;;;;5007746;28;20092;-70
2023/09/04 08:59:30;;;;;;;8.02;2.85;;;20.80;97.10;;;;;;5008814;28;20533;-71
2023/09/04 09:01:56;;;;;;;2.97;1.83;;;20.80;96.60;;;;;;5010240;28;20034;-70
2023/09/04 09:04:22;;;;;;;2.95;1.23;;;20.80;96.70;;;;;;5012272;28;20030;-70
2023/09/04 09:06:52;;;;;;;1.77;1.35;;;20.80;96.50;;;;;;5011903;28;20037;-70
2023/09/04 09:09:21;;;;;;;2.03;1.25;;;20.90;96.60;;;;;;4996912;28;20038;-70
2023/09/04 09:11:53;;;;;;;2.92;1.85;;;20.90;96.30;;;;;;5005782;28;20087;-71
2023/09/04 09:14:19;;;;;;;1.88;1.02;;;21.00;95.70;;;;;;5012221;28;20105;-71
2023/09/04 09:16:45;;;;;;;2.30;1.30;;;21.00;95.80;;;;;;5011533;28;20037;-71
2023/09/04 09:19:12;;;;;;;2.00;1.40;;;21.10;95.80;;;;;;5012794;28;20034;-70
2023/09/04 09:21:37;;;;;;;3.00;2.38;;;21.20;95.70;;;;;;5011574;28;20065;-71
2023/09/04 09:24:06;;;;;;;5.72;1.15;;;21.30;95.70;;;;;;5008619;28;20116;-70
2023/09/04 09:26:32;;;;;;;4.25;1.20;;;21.30;94.90;;;;;;5012008;28;20025;-70
2023/09/04 09:28:57;;;;;;;4.65;1.63;;;21.40;94.90;;;;;;5012946;28;20390;-70
2023/09/04 09:31:23;;;;;;;1.45;1.08;;;21.40;94.20;;;;;;5011025;28;20490;-70
2023/09/04 09:33:49;;;;;;;2.03;1.25;;;21.40;94.20;;;;;;5012226;28;20534;-71
2023/09/04 09:36:15;;;;;;;5.15;1.20;;;21.40;93.90;;;;;;5008964;28;20026;-70
2023/09/04 09:38:44;;;;;;;3.75;2.28;;;21.50;94.00;;;;;;5011205;28;20057;-70
2023/09/04 09:41:13;;;;;;;6.13;1.45;;;21.50;94.00;;;;;;5002351;28;20033;-70
2023/09/04 09:43:40;;;;;;;5.50;1.67;;;21.60;94.10;;;;;;5012284;28;20036;-70
2023/09/04 09:46:09;;;;;;;2.28;1.10;;;21.70;93.90;;;;;;5011426;28;20026;-70
2023/09/04 09:48:40;;;;;;;2.03;1.67;;;21.70;93.60;;;;;;5011322;28;20030;-70
2023/09/04 09:51:06;;;;;;;1.80;1.15;;;21.80;94.20;;;;;;5010304;28;20030;-71
2023/09/04 09:53:48;;;;;;;2.88;1.20;;;21.90;93.20;;;;;;5011056;28;20057;-70
2023/09/04 09:56:15;;;;;;;2.28;1.33;;;21.90;93.00;;;;;;5010591;28;20033;-70
2023/09/04 09:58:45;;;;;;;1.35;0.90;;;22.00;93.50;;;;;;5011880;28;20021;-70
2023/09/04 10:01:12;;;;;;;1.90;1.42;;;22.20;93.50;;;;;;5009640;28;20050;-70
2023/09/04 10:03:38;;;;;;;3.75;1.33;;;22.30;93.20;;;;;;5006882;28;20025;-71
2023/09/04 10:06:05;;;;;;;3.40;1.17;;;22.30;93.20;;;;;;5012257;28;20022;-72
2023/09/04 10:08:36;;;;;;;2.00;1.63;;;22.40;92.50;;;;;;5008805;28;20033;-71
2023/09/04 10:11:16;;;;;;;1.75;1.10;;;22.40;92.80;;;;;;5008659;28;20025;-71
2023/09/04 10:14:03;;;;;;;3.65;1.20;;;22.40;92.50;;;;;;5008544;28;20037;-71
2023/09/04 10:16:33;;;;;;;4.35;1.45;;;22.60;92.60;;;;;;5011670;28;20026;-71
2023/09/04 10:19:01;;;;;;;2.58;1.35;;;22.70;92.00;;;;;;5011848;28;20045;-71
2023/09/04 10:21:33;;;;;;;5.15;1.15;;;22.80;92.40;;;;;;5012104;28;20018;-71
2023/09/04 10:24:03;;;;;;;1.60;1.10;;;22.90;92.80;;;;;;5009755;28;20454;-71
2023/09/04 10:27:21;;;;;;;3.08;1.17;;;23.00;92.30;;;;;;5011403;28;20021;-71
2023/09/04 10:29:56;;;;;;;3.15;1.10;;;23.00;92.50;;;;;;4972784;28;20026;-71
2023/09/04 10:32:22;;;;;;;4.80;1.25;;;23.10;92.20;;;;;;5005691;28;20084;-71
2023/09/04 10:34:48;;;;;;;2.35;1.60;;;23.20;92.40;;;;;;5010466;28;20097;-71
2023/09/04 10:37:14;;;;;;;5.50;4.32;;;23.30;92.20;;;;;;5003554;28;20372;-71
2023/09/04 10:39:40;;;;;;;4.40;2.15;;;23.30;91.50;;;;;;5010863;28;20069;-72
2023/09/04 10:42:07;;;;;;;3.50;1.17;;;23.30;91.70;;;;;;5011538;28;20033;-73
2023/09/04 10:44:51;;;;;;;3.10;1.08;;;23.30;91.20;;;;;;5011681;28;20026;-73
2023/09/04 10:47:17;;;;;;;2.28;1.10;;;23.30;90.70;;;;;;5007071;28;20057;-72
2023/09/04 10:49:44;;;;;;;3.03;1.25;;;23.20;90.70;;;;;;5001229;28;20029;-73
2023/09/04 10:52:11;;;;;;;2.58;1.05;;;23.20;91.00;;;;;;5005262;28;20025;-72
2023/09/04 10:54:37;;;;;;;1.67;0.90;;;23.30;91.10;;;;;;5005273;28;20045;-71
2023/09/04 10:57:10;;;;;;;2.70;1.20;;;23.30;90.70;;;;;;5008421;28;20033;-71
2023/09/04 10:59:57;;;;;;;2.45;1.10;;;23.40;90.20;;;;;;5010809;28;20056;-71
2023/09/04 11:02:28;;;;;;;4.72;1.30;;;23.40;90.20;;;;;;5009717;28;20391;-71
2023/09/04 11:04:54;;;;;;;3.92;0.98;;;23.50;90.30;;;;;;5010302;28;20038;-72
2023/09/04 11:07:19;;;;;;;3.50;1.27;;;23.60;89.90;;;;;;5009105;28;20037;-72
2023/09/04 11:09:52;;;;;;;4.30;2.22;;;23.60;89.60;;;;;;5005585;28;20472;-71
2023/09/04 11:12:22;;;;;;;3.42;1.50;;;23.70;89.70;;;;;;5012537;28;20240;-72
2023/09/04 11:14:52;;;;;;;2.45;1.63;;;23.70;88.80;;;;;;5014567;28;20018;-72
2023/09/04 11:17:22;;;;;;;5.32;3.38;;;23.80;90.30;;;;;;5012457;28;20167;-73
2023/09/04 11:19:50;;;;;;;3.40;1.63;;;23.90;89.20;;;;;;5003845;28;20061;-72
2023/09/04 11:22:19;;;;;;;3.35;1.33;;;24.00;89.10;;;;;;4998255;28;20061;-72
2023/09/04 11:24:45;;;;;;;4.50;1.52;;;24.20;88.00;;;;;;5005100;28;20037;-72
2023/09/04 11:27:11;;;;;;;8.10;2.80;;;24.20;89.30;;;;;;5000952;28;20040;-73
2023/09/04 11:29:36;;;;;;;1.30;1.00;;;24.20;85.20;;;;;;5002320;28;20018;-72
2023/09/04 11:32:02;;;;;;;3.95;2.38;;;24.10;87.10;;;;;;5011064;28;20072;-73
2023/09/04 11:34:28;;;;;;;3.00;1.58;;;24.00;85.60;;;;;;5012682;28;20080;-73
2023/09/04 11:36:53;;;;;;;2.47;1.05;;;24.10;86.90;;;;;;5011452;28;20030;-72
2023/09/04 11:39:19;;;;;;;1.83;1.38;;;24.20;85.40;;;;;;5012085;28;20065;-71
2023/09/04 11:41:46;;;;;;;16.13;14.02;;;24.30;84.50;;;;;;5011086;28;20072;-73
2023/09/04 11:44:13;;;;;;;10.63;6.45;;;24.20;83.90;;;;;;5015258;28;20129;-73
2023/09/04 11:46:38;;;;;;;5.93;2.28;;;24.00;84.20;;;;;;5013298;28;20030;-72
2023/09/04 11:49:04;;;;;;;6.30;5.10;;;23.90;86.70;;;;;;5012712;28;20030;-72
2023/09/04 11:51:33;;;;;;;4.60;1.48;;;24.10;85.30;;;;;;5012102;28;20105;-71
2023/09/04 11:53:59;;;;;;;26.05;17.30;;;24.20;85.30;;;;;;5013754;28;20025;-72
2023/09/04 11:56:24;;;;;;;14.95;13.35;;;24.40;83.50;;;;;;5014720;28;20431;-72
2023/09/04 11:58:50;;;;;;;8.73;7.28;;;24.20;82.70;;;;;;5012535;28;20033;-72
2023/09/04 12:01:16;;;;;;;5.85;4.60;;;24.20;83.70;;;;;;5006943;28;20054;-72
2023/09/04 12:03:41;;;;;;;20.52;14.80;;;24.20;85.10;;;;;;5014484;28;20384;-72
2023/09/04 12:06:09;;;;;;;4.07;2.28;;;24.20;82.90;;;;;;5005854;28;20766;-73
2023/09/04 12:08:35;;;;;;;2.92;1.73;;;24.30;83.80;;;;;;5014161;28;20041;-71
2023/09/04 12:11:01;;;;;;;1.00;0.65;;;24.40;84.60;;;;;;5013067;28;20034;-71
2023/09/04 12:13:27;;;;;;;2.10;1.50;;;24.60;83.40;;;;;;5013589;28;20029;-71
2023/09/04 12:16:05;;;;;;;2.83;1.40;;;24.60;81.10;;;;;;5009120;28;20034;-72
2023/09/04 12:18:34;;;;;;;2.33;0.90;;;24.50;82.20;;;;;;5013023;28;20379;-71
2023/09/04 12:21:00;;;;;;;5.90;2.35;;;24.60;83.10;;;;;;5012759;28;20030;-72
2023/09/04 12:23:44;;;;;;;4.38;0.90;;;24.90;83.10;;;;;;5014215;28;20022;-72
2023/09/04 12:26:15;;;;;;;3.85;1.00;;;25.10;83.10;;;;;;5014040;28;20017;-72
2023/09/04 12:28:42;;;;;;;4.53;1.50;;;25.30;82.70;;;;;;5013761;28;20430;-72
2023/09/04 12:31:12;;;;;;;3.75;1.00;;;25.40;81.90;;;;;;5011153;28;20022;-72
2023/09/04 12:33:40;;;;;;;1.10;0.95;;;25.40;81.10;;;;;;5014004;28;20064;-71
2023/09/04 12:36:08;;;;;;;2.60;1.20;;;25.40;79.00;;;;;;5013386;28;20030;-72
2023/09/04 12:38:37;;;;;;;3.58;3.03;;;25.30;79.40;;;;;;5012884;28;20168;-72
2023/09/04 12:41:03;;;;;;;2.88;0.90;;;25.10;78.90;;;;;;5013495;28;20391;-72
2023/09/04 12:43:29;;;;;;;2.58;0.88;;;25.00;77.50;;;;;;5011550;28;20458;-72
2023/09/04 12:45:55;;;;;;;5.00;1.08;;;25.10;78.60;;;;;;5011675;28;20153;-72